sensor_id;sensor_type;location;lat;lon;timestamp;P1;durP1;ratioP1;P2;durP2;ratioP2
37339;SDS011;23223;51.006;7.610;2023-06-22T00:00:18;7.28;;;5.72;;
37339;SDS011;23223;51.006;7.610;2023-06-22T00:02:45;8.50;;;5.85;;
37339;SDS011;23223;51.006;7.610;2023-06-22T00:05:10;8.52;;;6.43;;
37339;SDS011;23223;51.006;7.610;2023-06-22T00:07:36;7.05;;;6.00;;
37339;SDS011;23223;51.006;7.610;2023-06-22T00:10:01;8.15;;;5.88;;
37339;SDS011;23223;51.006;7.610;2023-06-22T00:12:27;7.10;;;5.70;;
37339;SDS011;23223;51.006;7.610;2023-06-22T00:14:52;7.93;;;5.72;;
37339;SDS011;23223;51.006;7.610;2023-06-22T00:17:18;6.78;;;5.88;;
37339;SDS011;23223;51.006;7.610;2023-06-22T00:19:46;10.13;;;7.05;;
37339;SDS011;23223;51.006;7.610;2023-06-22T00:22:12;6.85;;;5.68;;
37339;SDS011;23223;51.006;7.610;2023-06-22T00:24:38;7.45;;;6.15;;
37339;SDS011;23223;51.006;7.610;2023-06-22T00:27:03;6.97;;;5.88;;
37339;SDS011;23223;51.006;7.610;2023-06-22T00:29:30;8.88;;;6.00;;
37339;SDS011;23223;51.006;7.610;2023-06-22T00:31:56;6.50;;;5.53;;
37339;SDS011;23223;51.006;7.610;2023-06-22T00:34:21;8.65;;;6.35;;
37339;SDS011;23223;51.006;7.610;2023-06-22T00:36:47;7.35;;;5.72;;
37339;SDS011;23223;51.006;7.610;2023-06-22T00:39:13;6.47;;;5.88;;
37339;SDS011;23223;51.006;7.610;2023-06-22T00:41:38;9.25;;;5.53;;
37339;SDS011;23223;51.006;7.610;2023-06-22T00:44:04;7.40;;;5.85;;
37339;SDS011;23223;51.006;7.610;2023-06-22T00:46:30;7.80;;;6.10;;
37339;SDS011;23223;51.006;7.610;2023-06-22T00:48:55;5.97;;;5.38;;
37339;SDS011;23223;51.006;7.610;2023-06-22T00:51:22;7.60;;;4.95;;
37339;SDS011;23223;51.006;7.610;2023-06-22T00:53:49;8.30;;;5.78;;
37339;SDS011;23223;51.006;7.610;2023-06-22T00:56:16;10.65;;;6.18;;
37339;SDS011;23223;51.006;7.610;2023-06-22T00:58:44;10.68;;;6.15;;
37339;SDS011;23223;51.006;7.610;2023-06-22T01:01:12;11.88;;;5.70;;
37339;SDS011;23223;51.006;7.610;2023-06-22T01:03:39;10.75;;;6.35;;
37339;SDS011;23223;51.006;7.610;2023-06-22T01:06:09;9.10;;;5.68;;
37339;SDS011;23223;51.006;7.610;2023-06-22T01:08:46;6.63;;;5.75;;
37339;SDS011;23223;51.006;7.610;2023-06-22T01:11:29;6.30;;;5.55;;
37339;SDS011;23223;51.006;7.610;2023-06-22T01:14:10;12.43;;;5.68;;
37339;SDS011;23223;51.006;7.610;2023-06-22T01:16:41;6.22;;;5.47;;
37339;SDS011;23223;51.006;7.610;2023-06-22T01:21:43;10.18;;;5.95;;
37339;SDS011;23223;51.006;7.610;2023-06-22T01:29:47;6.63;;;6.03;;
37339;SDS011;23223;51.006;7.610;2023-06-22T01:32:16;6.35;;;5.70;;
37339;SDS011;23223;51.006;7.610;2023-06-22T01:34:42;6.78;;;6.07;;
37339;SDS011;23223;51.006;7.610;2023-06-22T01:37:08;6.78;;;6.00;;
37339;SDS011;23223;51.006;7.610;2023-06-22T01:39:34;9.48;;;6.50;;
37339;SDS011;23223;51.006;7.610;2023-06-22T01:42:01;6.78;;;5.82;;
37339;SDS011;23223;51.006;7.610;2023-06-22T01:44:28;7.53;;;6.03;;
37339;SDS011;23223;51.006;7.610;2023-06-22T01:46:54;6.38;;;5.68;;
37339;SDS011;23223;51.006;7.610;2023-06-22T01:49:20;8.65;;;5.88;;
37339;SDS011;23223;51.006;7.610;2023-06-22T01:51:46;6.05;;;5.45;;
37339;SDS011;23223;51.006;7.610;2023-06-22T01:54:12;7.43;;;6.13;;
37339;SDS011;23223;51.006;7.610;2023-06-22T01:56:37;6.95;;;6.22;;
37339;SDS011;23223;51.006;7.610;2023-06-22T01:59:11;6.63;;;5.68;;
37339;SDS011;23223;51.006;7.610;2023-06-22T02:01:43;6.93;;;6.22;;
37339;SDS011;23223;51.006;7.610;2023-06-22T02:04:19;6.20;;;5.60;;
37339;SDS011;23223;51.006;7.610;2023-06-22T02:06:47;6.63;;;6.03;;
37339;SDS011;23223;51.006;7.610;2023-06-22T02:09:20;6.78;;;6.18;;
37339;SDS011;23223;51.006;7.610;2023-06-22T02:11:48;9.57;;;5.72;;
37339;SDS011;23223;51.006;7.610;2023-06-22T02:14:20;6.70;;;6.10;;
37339;SDS011;23223;51.006;7.610;2023-06-22T02:16:46;8.07;;;6.07;;
37339;SDS011;23223;51.006;7.610;2023-06-22T02:19:12;8.77;;;5.97;;
37339;SDS011;23223;51.006;7.610;2023-06-22T02:21:43;8.52;;;5.85;;
37339;SDS011;23223;51.006;7.610;2023-06-22T02:24:09;9.90;;;5.95;;
37339;SDS011;23223;51.006;7.610;2023-06-22T02:26:35;6.82;;;5.82;;
37339;SDS011;23223;51.006;7.610;2023-06-22T02:29:03;7.88;;;5.75;;
37339;SDS011;23223;51.006;7.610;2023-06-22T02:31:29;8.10;;;5.97;;
37339;SDS011;23223;51.006;7.610;2023-06-22T02:33:58;9.90;;;5.60;;
37339;SDS011;23223;51.006;7.610;2023-06-22T02:36:24;7.10;;;6.00;;
37339;SDS011;23223;51.006;7.610;2023-06-22T02:38:52;7.05;;;6.43;;
37339;SDS011;23223;51.006;7.610;2023-06-22T02:41:19;5.95;;;5.43;;
37339;SDS011;23223;51.006;7.610;2023-06-22T02:43:45;6.22;;;5.60;;
37339;SDS011;23223;51.006;7.610;2023-06-22T02:46:11;6.60;;;5.90;;
37339;SDS011;23223;51.006;7.610;2023-06-22T02:48:38;7.07;;;6.38;;
37339;SDS011;23223;51.006;7.610;2023-06-22T02:51:04;10.57;;;6.60;;
37339;SDS011;23223;51.006;7.610;2023-06-22T02:53:30;6.95;;;6.32;;
37339;SDS011;23223;51.006;7.610;2023-06-22T02:55:56;5.80;;;5.30;;
37339;SDS011;23223;51.006;7.610;2023-06-22T02:58:22;7.00;;;5.60;;
37339;SDS011;23223;51.006;7.610;2023-06-22T03:00:49;7.93;;;6.38;;
37339;SDS011;23223;51.006;7.610;2023-06-22T03:03:17;10.82;;;6.30;;
37339;SDS011;23223;51.006;7.610;2023-06-22T03:05:43;8.85;;;6.43;;
37339;SDS011;23223;51.006;7.610;2023-06-22T03:08:09;10.70;;;6.28;;
37339;SDS011;23223;51.006;7.610;2023-06-22T03:10:35;8.00;;;6.53;;
37339;SDS011;23223;51.006;7.610;2023-06-22T03:13:00;9.35;;;6.95;;
37339;SDS011;23223;51.006;7.610;2023-06-22T03:15:26;7.47;;;6.35;;
37339;SDS011;23223;51.006;7.610;2023-06-22T03:17:54;8.20;;;6.50;;
37339;SDS011;23223;51.006;7.610;2023-06-22T03:20:20;7.28;;;6.10;;
37339;SDS011;23223;51.006;7.610;2023-06-22T03:22:48;7.80;;;6.38;;
37339;SDS011;23223;51.006;7.610;2023-06-22T03:25:14;7.22;;;6.45;;
37339;SDS011;23223;51.006;7.610;2023-06-22T03:27:43;11.05;;;6.97;;
37339;SDS011;23223;51.006;7.610;2023-06-22T03:30:13;10.98;;;7.50;;
37339;SDS011;23223;51.006;7.610;2023-06-22T03:32:38;10.80;;;6.88;;
37339;SDS011;23223;51.006;7.610;2023-06-22T03:35:04;9.57;;;8.13;;
37339;SDS011;23223;51.006;7.610;2023-06-22T03:37:31;8.25;;;7.40;;
37339;SDS011;23223;51.006;7.610;2023-06-22T03:39:56;9.05;;;7.07;;
37339;SDS011;23223;51.006;7.610;2023-06-22T03:42:22;8.32;;;7.43;;
37339;SDS011;23223;51.006;7.610;2023-06-22T03:44:47;9.32;;;7.85;;
37339;SDS011;23223;51.006;7.610;2023-06-22T03:47:13;8.63;;;6.55;;
37339;SDS011;23223;51.006;7.610;2023-06-22T03:49:39;11.65;;;7.82;;
37339;SDS011;23223;51.006;7.610;2023-06-22T03:52:04;16.25;;;7.68;;
37339;SDS011;23223;51.006;7.610;2023-06-22T03:54:30;8.68;;;7.78;;
37339;SDS011;23223;51.006;7.610;2023-06-22T03:56:57;10.25;;;7.05;;
37339;SDS011;23223;51.006;7.610;2023-06-22T03:59:23;9.80;;;7.25;;
37339;SDS011;23223;51.006;7.610;2023-06-22T04:01:48;12.40;;;8.05;;
37339;SDS011;23223;51.006;7.610;2023-06-22T04:04:15;8.52;;;7.00;;
37339;SDS011;23223;51.006;7.610;2023-06-22T04:06:41;12.00;;;8.50;;
37339;SDS011;23223;51.006;7.610;2023-06-22T04:09:06;11.25;;;8.30;;
37339;SDS011;23223;51.006;7.610;2023-06-22T04:11:32;12.15;;;8.13;;
37339;SDS011;23223;51.006;7.610;2023-06-22T04:13:57;12.13;;;8.38;;
37339;SDS011;23223;51.006;7.610;2023-06-22T04:16:23;9.77;;;8.77;;
37339;SDS011;23223;51.006;7.610;2023-06-22T04:18:48;12.77;;;9.93;;
37339;SDS011;23223;51.006;7.610;2023-06-22T04:21:14;13.05;;;10.45;;
37339;SDS011;23223;51.006;7.610;2023-06-22T04:23:39;11.32;;;10.23;;
37339;SDS011;23223;51.006;7.610;2023-06-22T04:26:05;13.20;;;11.90;;
37339;SDS011;23223;51.006;7.610;2023-06-22T04:28:30;13.75;;;11.93;;
37339;SDS011;23223;51.006;7.610;2023-06-22T04:31:00;9.88;;;8.88;;
37339;SDS011;23223;51.006;7.610;2023-06-22T04:33:27;12.77;;;9.00;;
37339;SDS011;23223;51.006;7.610;2023-06-22T04:35:54;10.45;;;7.38;;
37339;SDS011;23223;51.006;7.610;2023-06-22T04:38:22;8.77;;;7.70;;
37339;SDS011;23223;51.006;7.610;2023-06-22T04:40:48;8.50;;;7.50;;
37339;SDS011;23223;51.006;7.610;2023-06-22T04:43:13;11.85;;;8.68;;
37339;SDS011;23223;51.006;7.610;2023-06-22T04:45:39;11.93;;;10.70;;
37339;SDS011;23223;51.006;7.610;2023-06-22T04:48:05;15.20;;;9.73;;
37339;SDS011;23223;51.006;7.610;2023-06-22T04:50:30;15.38;;;11.43;;
37339;SDS011;23223;51.006;7.610;2023-06-22T04:52:56;13.20;;;11.77;;
37339;SDS011;23223;51.006;7.610;2023-06-22T04:55:23;10.93;;;9.82;;
37339;SDS011;23223;51.006;7.610;2023-06-22T04:57:50;12.35;;;8.60;;
37339;SDS011;23223;51.006;7.610;2023-06-22T05:00:17;9.38;;;8.57;;
37339;SDS011;23223;51.006;7.610;2023-06-22T05:02:48;11.20;;;8.57;;
37339;SDS011;23223;51.006;7.610;2023-06-22T05:05:14;9.57;;;8.68;;
37339;SDS011;23223;51.006;7.610;2023-06-22T05:07:44;16.27;;;10.90;;
37339;SDS011;23223;51.006;7.610;2023-06-22T05:10:13;14.23;;;10.35;;
37339;SDS011;23223;51.006;7.610;2023-06-22T05:12:39;13.55;;;11.02;;
37339;SDS011;23223;51.006;7.610;2023-06-22T05:15:06;15.07;;;10.65;;
37339;SDS011;23223;51.006;7.610;2023-06-22T05:17:33;24.33;;;11.98;;
37339;SDS011;23223;51.006;7.610;2023-06-22T05:19:59;13.13;;;10.85;;
37339;SDS011;23223;51.006;7.610;2023-06-22T05:22:24;14.90;;;11.25;;
37339;SDS011;23223;51.006;7.610;2023-06-22T05:24:50;13.73;;;11.07;;
37339;SDS011;23223;51.006;7.610;2023-06-22T05:27:15;15.35;;;11.63;;
37339;SDS011;23223;51.006;7.610;2023-06-22T05:29:41;12.23;;;10.82;;
37339;SDS011;23223;51.006;7.610;2023-06-22T05:32:09;18.27;;;13.35;;
37339;SDS011;23223;51.006;7.610;2023-06-22T05:34:35;15.27;;;11.85;;
37339;SDS011;23223;51.006;7.610;2023-06-22T05:37:01;13.85;;;12.38;;
37339;SDS011;23223;51.006;7.610;2023-06-22T05:39:27;12.77;;;8.18;;
37339;SDS011;23223;51.006;7.610;2023-06-22T05:41:53;15.20;;;12.25;;
37339;SDS011;23223;51.006;7.610;2023-06-22T05:44:18;20.35;;;13.25;;
37339;SDS011;23223;51.006;7.610;2023-06-22T05:46:44;14.25;;;11.65;;
37339;SDS011;23223;51.006;7.610;2023-06-22T05:49:11;13.60;;;11.18;;
37339;SDS011;23223;51.006;7.610;2023-06-22T05:51:38;13.23;;;11.35;;
37339;SDS011;23223;51.006;7.610;2023-06-22T05:54:03;14.90;;;11.07;;
37339;SDS011;23223;51.006;7.610;2023-06-22T05:56:29;12.25;;;9.77;;
37339;SDS011;23223;51.006;7.610;2023-06-22T05:58:55;12.40;;;10.38;;
37339;SDS011;23223;51.006;7.610;2023-06-22T06:01:20;13.15;;;11.57;;
37339;SDS011;23223;51.006;7.610;2023-06-22T06:03:46;13.75;;;10.45;;
37339;SDS011;23223;51.006;7.610;2023-06-22T06:06:11;13.70;;;9.52;;
37339;SDS011;23223;51.006;7.610;2023-06-22T06:08:38;11.90;;;10.73;;
37339;SDS011;23223;51.006;7.610;2023-06-22T06:11:04;12.15;;;8.75;;
37339;SDS011;23223;51.006;7.610;2023-06-22T06:13:29;11.90;;;9.18;;
37339;SDS011;23223;51.006;7.610;2023-06-22T06:15:55;11.50;;;10.02;;
37339;SDS011;23223;51.006;7.610;2023-06-22T06:18:21;9.20;;;7.05;;
37339;SDS011;23223;51.006;7.610;2023-06-22T06:20:47;10.70;;;9.60;;
37339;SDS011;23223;51.006;7.610;2023-06-22T06:23:13;13.48;;;8.80;;
37339;SDS011;23223;51.006;7.610;2023-06-22T06:25:38;9.05;;;7.95;;
37339;SDS011;23223;51.006;7.610;2023-06-22T06:28:04;11.82;;;9.20;;
37339;SDS011;23223;51.006;7.610;2023-06-22T06:30:30;11.90;;;10.07;;
37339;SDS011;23223;51.006;7.610;2023-06-22T06:32:55;11.35;;;9.85;;
37339;SDS011;23223;51.006;7.610;2023-06-22T06:35:21;10.93;;;9.40;;
37339;SDS011;23223;51.006;7.610;2023-06-22T06:37:48;10.77;;;8.70;;
37339;SDS011;23223;51.006;7.610;2023-06-22T06:40:14;8.07;;;7.10;;
37339;SDS011;23223;51.006;7.610;2023-06-22T06:42:41;11.68;;;7.82;;
37339;SDS011;23223;51.006;7.610;2023-06-22T06:45:15;7.70;;;6.50;;
37339;SDS011;23223;51.006;7.610;2023-06-22T06:47:44;9.95;;;8.65;;
37339;SDS011;23223;51.006;7.610;2023-06-22T06:50:10;9.93;;;8.07;;
37339;SDS011;23223;51.006;7.610;2023-06-22T06:52:36;10.05;;;8.07;;
37339;SDS011;23223;51.006;7.610;2023-06-22T06:55:02;10.80;;;7.60;;
37339;SDS011;23223;51.006;7.610;2023-06-22T06:57:29;8.65;;;7.00;;
37339;SDS011;23223;51.006;7.610;2023-06-22T06:59:55;9.32;;;7.80;;
37339;SDS011;23223;51.006;7.610;2023-06-22T07:02:22;7.68;;;5.97;;
37339;SDS011;23223;51.006;7.610;2023-06-22T07:04:48;7.82;;;7.00;;
37339;SDS011;23223;51.006;7.610;2023-06-22T07:07:14;8.43;;;6.82;;
37339;SDS011;23223;51.006;7.610;2023-06-22T07:09:39;7.07;;;6.15;;
37339;SDS011;23223;51.006;7.610;2023-06-22T07:12:05;7.20;;;5.43;;
37339;SDS011;23223;51.006;7.610;2023-06-22T07:14:31;7.38;;;6.68;;
37339;SDS011;23223;51.006;7.610;2023-06-22T07:16:57;7.45;;;5.82;;
37339;SDS011;23223;51.006;7.610;2023-06-22T07:19:26;10.43;;;6.80;;
37339;SDS011;23223;51.006;7.610;2023-06-22T07:21:53;11.40;;;7.25;;
37339;SDS011;23223;51.006;7.610;2023-06-22T07:24:22;8.38;;;6.70;;
37339;SDS011;23223;51.006;7.610;2023-06-22T07:26:48;9.05;;;5.57;;
37339;SDS011;23223;51.006;7.610;2023-06-22T07:29:15;8.02;;;7.32;;
37339;SDS011;23223;51.006;7.610;2023-06-22T07:31:41;10.82;;;8.25;;
37339;SDS011;23223;51.006;7.610;2023-06-22T07:34:07;7.57;;;6.78;;
37339;SDS011;23223;51.006;7.610;2023-06-22T07:36:32;8.63;;;5.97;;
37339;SDS011;23223;51.006;7.610;2023-06-22T07:39:00;8.75;;;7.85;;
37339;SDS011;23223;51.006;7.610;2023-06-22T07:41:27;9.10;;;7.47;;
37339;SDS011;23223;51.006;7.610;2023-06-22T07:43:53;7.13;;;6.43;;
37339;SDS011;23223;51.006;7.610;2023-06-22T07:46:19;6.78;;;5.28;;
37339;SDS011;23223;51.006;7.610;2023-06-22T07:48:44;7.75;;;5.35;;
37339;SDS011;23223;51.006;7.610;2023-06-22T07:51:10;6.35;;;5.75;;
37339;SDS011;23223;51.006;7.610;2023-06-22T07:53:39;6.70;;;5.07;;
37339;SDS011;23223;51.006;7.610;2023-06-22T07:56:05;6.25;;;5.32;;
37339;SDS011;23223;51.006;7.610;2023-06-22T07:58:32;6.97;;;5.43;;
37339;SDS011;23223;51.006;7.610;2023-06-22T08:00:58;6.18;;;5.55;;
37339;SDS011;23223;51.006;7.610;2023-06-22T08:03:24;7.40;;;5.85;;
37339;SDS011;23223;51.006;7.610;2023-06-22T08:05:49;6.70;;;5.47;;
37339;SDS011;23223;51.006;7.610;2023-06-22T08:08:15;7.30;;;5.63;;
37339;SDS011;23223;51.006;7.610;2023-06-22T08:10:41;6.22;;;5.63;;
37339;SDS011;23223;51.006;7.610;2023-06-22T08:13:07;8.13;;;5.50;;
37339;SDS011;23223;51.006;7.610;2023-06-22T08:15:33;7.80;;;6.60;;
37339;SDS011;23223;51.006;7.610;2023-06-22T08:17:59;10.18;;;6.35;;
37339;SDS011;23223;51.006;7.610;2023-06-22T08:20:25;9.40;;;6.88;;
37339;SDS011;23223;51.006;7.610;2023-06-22T08:22:52;8.13;;;7.40;;
37339;SDS011;23223;51.006;7.610;2023-06-22T08:25:19;6.32;;;5.72;;
37339;SDS011;23223;51.006;7.610;2023-06-22T08:27:45;6.60;;;5.68;;
37339;SDS011;23223;51.006;7.610;2023-06-22T08:30:12;6.03;;;5.45;;
37339;SDS011;23223;51.006;7.610;2023-06-22T08:32:38;6.43;;;5.13;;
37339;SDS011;23223;51.006;7.610;2023-06-22T08:35:03;5.97;;;5.38;;
37339;SDS011;23223;51.006;7.610;2023-06-22T08:37:31;6.35;;;5.68;;
37339;SDS011;23223;51.006;7.610;2023-06-22T08:40:00;6.82;;;5.95;;
37339;SDS011;23223;51.006;7.610;2023-06-22T08:42:30;7.45;;;5.68;;
37339;SDS011;23223;51.006;7.610;2023-06-22T08:44:56;6.15;;;5.40;;
37339;SDS011;23223;51.006;7.610;2023-06-22T08:47:24;8.55;;;7.32;;
37339;SDS011;23223;51.006;7.610;2023-06-22T08:49:50;9.20;;;6.93;;
37339;SDS011;23223;51.006;7.610;2023-06-22T08:52:17;6.65;;;5.68;;
37339;SDS011;23223;51.006;7.610;2023-06-22T08:54:43;9.43;;;6.70;;
37339;SDS011;23223;51.006;7.610;2023-06-22T08:57:09;8.10;;;5.32;;
37339;SDS011;23223;51.006;7.610;2023-06-22T08:59:35;6.05;;;5.45;;
37339;SDS011;23223;51.006;7.610;2023-06-22T09:02:00;9.50;;;6.10;;
37339;SDS011;23223;51.006;7.610;2023-06-22T09:04:26;8.02;;;6.50;;
37339;SDS011;23223;51.006;7.610;2023-06-22T09:06:52;6.20;;;5.60;;
37339;SDS011;23223;51.006;7.610;2023-06-22T09:09:17;6.65;;;5.85;;
37339;SDS011;23223;51.006;7.610;2023-06-22T09:11:43;6.15;;;5.28;;
37339;SDS011;23223;51.006;7.610;2023-06-22T09:14:09;6.57;;;5.90;;
37339;SDS011;23223;51.006;7.610;2023-06-22T09:16:35;7.45;;;6.70;;
37339;SDS011;23223;51.006;7.610;2023-06-22T09:19:01;8.07;;;7.00;;
37339;SDS011;23223;51.006;7.610;2023-06-22T09:21:27;7.20;;;6.20;;
37339;SDS011;23223;51.006;7.610;2023-06-22T09:23:52;6.95;;;5.55;;
37339;SDS011;23223;51.006;7.610;2023-06-22T09:26:18;7.57;;;6.88;;
37339;SDS011;23223;51.006;7.610;2023-06-22T09:28:44;7.47;;;6.78;;
37339;SDS011;23223;51.006;7.610;2023-06-22T09:31:10;14.57;;;7.55;;
37339;SDS011;23223;51.006;7.610;2023-06-22T09:33:36;6.38;;;5.78;;
37339;SDS011;23223;51.006;7.610;2023-06-22T09:36:05;8.32;;;5.93;;
37339;SDS011;23223;51.006;7.610;2023-06-22T09:38:37;7.35;;;6.55;;
37339;SDS011;23223;51.006;7.610;2023-06-22T09:41:03;5.95;;;5.40;;
37339;SDS011;23223;51.006;7.610;2023-06-22T09:43:30;7.43;;;5.95;;
37339;SDS011;23223;51.006;7.610;2023-06-22T09:45:57;7.07;;;6.38;;
37339;SDS011;23223;51.006;7.610;2023-06-22T09:48:22;6.93;;;5.88;;
37339;SDS011;23223;51.006;7.610;2023-06-22T09:50:48;7.78;;;6.95;;
37339;SDS011;23223;51.006;7.610;2023-06-22T09:53:14;8.95;;;6.13;;
37339;SDS011;23223;51.006;7.610;2023-06-22T09:55:39;8.88;;;6.00;;
37339;SDS011;23223;51.006;7.610;2023-06-22T09:58:05;6.80;;;5.90;;
37339;SDS011;23223;51.006;7.610;2023-06-22T10:00:30;7.28;;;6.57;;
37339;SDS011;23223;51.006;7.610;2023-06-22T10:02:56;9.43;;;6.20;;
37339;SDS011;23223;51.006;7.610;2023-06-22T10:05:22;7.93;;;7.18;;
37339;SDS011;23223;51.006;7.610;2023-06-22T10:07:47;9.77;;;5.70;;
37339;SDS011;23223;51.006;7.610;2023-06-22T10:10:13;9.73;;;6.55;;
37339;SDS011;23223;51.006;7.610;2023-06-22T10:12:47;9.23;;;7.10;;
37339;SDS011;23223;51.006;7.610;2023-06-22T10:15:13;10.43;;;6.75;;
37339;SDS011;23223;51.006;7.610;2023-06-22T10:17:40;8.27;;;7.18;;
37339;SDS011;23223;51.006;7.610;2023-06-22T10:20:06;6.72;;;6.05;;
37339;SDS011;23223;51.006;7.610;2023-06-22T10:22:39;7.75;;;6.95;;
37339;SDS011;23223;51.006;7.610;2023-06-22T10:25:08;7.47;;;6.72;;
37339;SDS011;23223;51.006;7.610;2023-06-22T10:27:34;9.55;;;7.28;;
37339;SDS011;23223;51.006;7.610;2023-06-22T10:30:00;9.20;;;7.00;;
37339;SDS011;23223;51.006;7.610;2023-06-22T10:32:26;11.95;;;7.35;;
37339;SDS011;23223;51.006;7.610;2023-06-22T10:34:53;7.65;;;6.93;;
37339;SDS011;23223;51.006;7.610;2023-06-22T10:37:19;9.23;;;7.13;;
37339;SDS011;23223;51.006;7.610;2023-06-22T10:39:44;8.20;;;6.05;;
37339;SDS011;23223;51.006;7.610;2023-06-22T10:42:11;8.13;;;7.25;;
37339;SDS011;23223;51.006;7.610;2023-06-22T10:44:37;10.82;;;7.50;;
37339;SDS011;23223;51.006;7.610;2023-06-22T10:47:04;7.18;;;6.47;;
37339;SDS011;23223;51.006;7.610;2023-06-22T10:49:29;8.55;;;6.43;;
37339;SDS011;23223;51.006;7.610;2023-06-22T10:51:55;7.25;;;6.57;;
37339;SDS011;23223;51.006;7.610;2023-06-22T10:54:20;7.22;;;6.55;;
37339;SDS011;23223;51.006;7.610;2023-06-22T10:56:46;7.53;;;5.95;;
37339;SDS011;23223;51.006;7.610;2023-06-22T10:59:12;9.38;;;6.75;;
37339;SDS011;23223;51.006;7.610;2023-06-22T11:01:37;12.25;;;7.82;;
37339;SDS011;23223;51.006;7.610;2023-06-22T11:04:03;10.55;;;7.55;;
37339;SDS011;23223;51.006;7.610;2023-06-22T11:06:29;7.30;;;6.40;;
37339;SDS011;23223;51.006;7.610;2023-06-22T11:08:55;15.63;;;8.80;;
37339;SDS011;23223;51.006;7.610;2023-06-22T11:11:20;13.07;;;8.52;;
37339;SDS011;23223;51.006;7.610;2023-06-22T11:13:46;18.73;;;10.52;;
37339;SDS011;23223;51.006;7.610;2023-06-22T11:16:11;13.98;;;8.70;;
37339;SDS011;23223;51.006;7.610;2023-06-22T11:18:37;14.50;;;10.10;;
37339;SDS011;23223;51.006;7.610;2023-06-22T11:21:02;14.75;;;8.88;;
37339;SDS011;23223;51.006;7.610;2023-06-22T11:23:28;13.57;;;9.20;;
37339;SDS011;23223;51.006;7.610;2023-06-22T11:25:54;11.43;;;9.30;;
37339;SDS011;23223;51.006;7.610;2023-06-22T11:28:19;11.98;;;9.55;;
37339;SDS011;23223;51.006;7.610;2023-06-22T11:30:45;10.65;;;8.85;;
37339;SDS011;23223;51.006;7.610;2023-06-22T11:33:11;11.88;;;9.27;;
37339;SDS011;23223;51.006;7.610;2023-06-22T11:35:36;19.65;;;10.57;;
37339;SDS011;23223;51.006;7.610;2023-06-22T11:38:02;17.13;;;9.27;;
37339;SDS011;23223;51.006;7.610;2023-06-22T11:40:29;12.88;;;7.40;;
37339;SDS011;23223;51.006;7.610;2023-06-22T11:42:54;15.23;;;8.38;;
37339;SDS011;23223;51.006;7.610;2023-06-22T11:45:20;17.30;;;10.38;;
37339;SDS011;23223;51.006;7.610;2023-06-22T11:47:46;14.63;;;9.23;;
37339;SDS011;23223;51.006;7.610;2023-06-22T11:50:11;12.68;;;9.23;;
37339;SDS011;23223;51.006;7.610;2023-06-22T11:52:37;14.90;;;8.43;;
37339;SDS011;23223;51.006;7.610;2023-06-22T11:55:03;13.88;;;7.03;;
37339;SDS011;23223;51.006;7.610;2023-06-22T11:57:32;9.38;;;7.38;;
37339;SDS011;23223;51.006;7.610;2023-06-22T12:00:01;16.33;;;10.32;;
37339;SDS011;23223;51.006;7.610;2023-06-22T12:02:31;11.75;;;5.47;;
37339;SDS011;23223;51.006;7.610;2023-06-22T12:04:57;14.02;;;5.38;;
37339;SDS011;23223;51.006;7.610;2023-06-22T12:07:23;14.63;;;4.45;;
37339;SDS011;23223;51.006;7.610;2023-06-22T12:09:49;10.98;;;4.70;;
37339;SDS011;23223;51.006;7.610;2023-06-22T12:12:14;10.88;;;4.53;;
37339;SDS011;23223;51.006;7.610;2023-06-22T12:14:40;9.20;;;4.38;;
37339;SDS011;23223;51.006;7.610;2023-06-22T12:17:05;6.90;;;3.78;;
37339;SDS011;23223;51.006;7.610;2023-06-22T12:19:31;9.55;;;4.15;;
37339;SDS011;23223;51.006;7.610;2023-06-22T12:21:57;7.97;;;3.85;;
37339;SDS011;23223;51.006;7.610;2023-06-22T12:24:22;11.15;;;4.20;;
37339;SDS011;23223;51.006;7.610;2023-06-22T12:26:48;9.63;;;4.28;;
37339;SDS011;23223;51.006;7.610;2023-06-22T12:29:14;8.88;;;4.35;;
37339;SDS011;23223;51.006;7.610;2023-06-22T12:31:39;9.68;;;4.35;;
37339;SDS011;23223;51.006;7.610;2023-06-22T12:34:06;13.43;;;5.38;;
37339;SDS011;23223;51.006;7.610;2023-06-22T12:36:32;7.30;;;4.50;;
37339;SDS011;23223;51.006;7.610;2023-06-22T12:38:57;8.43;;;4.43;;
37339;SDS011;23223;51.006;7.610;2023-06-22T12:41:23;6.25;;;3.88;;
37339;SDS011;23223;51.006;7.610;2023-06-22T12:43:48;9.40;;;4.45;;
37339;SDS011;23223;51.006;7.610;2023-06-22T12:46:14;7.78;;;4.80;;
37339;SDS011;23223;51.006;7.610;2023-06-22T12:48:39;11.27;;;5.22;;
37339;SDS011;23223;51.006;7.610;2023-06-22T12:51:07;9.57;;;5.55;;
37339;SDS011;23223;51.006;7.610;2023-06-22T12:53:34;8.85;;;3.92;;
37339;SDS011;23223;51.006;7.610;2023-06-22T12:55:59;9.35;;;5.65;;
37339;SDS011;23223;51.006;7.610;2023-06-22T12:58:25;11.98;;;6.63;;
37339;SDS011;23223;51.006;7.610;2023-06-22T13:00:50;5.43;;;3.88;;
37339;SDS011;23223;51.006;7.610;2023-06-22T13:03:16;12.25;;;7.30;;
37339;SDS011;23223;51.006;7.610;2023-06-22T13:05:41;11.65;;;5.93;;
37339;SDS011;23223;51.006;7.610;2023-06-22T13:08:07;8.10;;;5.70;;
37339;SDS011;23223;51.006;7.610;2023-06-22T13:10:33;7.85;;;5.45;;
37339;SDS011;23223;51.006;7.610;2023-06-22T13:12:59;9.75;;;7.00;;
37339;SDS011;23223;51.006;7.610;2023-06-22T13:15:28;8.82;;;6.05;;
37339;SDS011;23223;51.006;7.610;2023-06-22T13:17:54;10.98;;;7.20;;
37339;SDS011;23223;51.006;7.610;2023-06-22T13:20:20;12.05;;;5.70;;
37339;SDS011;23223;51.006;7.610;2023-06-22T13:22:46;8.38;;;7.13;;
37339;SDS011;23223;51.006;7.610;2023-06-22T13:25:11;11.73;;;6.10;;
37339;SDS011;23223;51.006;7.610;2023-06-22T13:27:40;7.85;;;5.50;;
37339;SDS011;23223;51.006;7.610;2023-06-22T13:30:07;8.35;;;6.45;;
37339;SDS011;23223;51.006;7.610;2023-06-22T13:32:33;9.55;;;7.13;;
37339;SDS011;23223;51.006;7.610;2023-06-22T13:34:59;7.53;;;5.50;;
37339;SDS011;23223;51.006;7.610;2023-06-22T13:37:25;14.95;;;6.90;;
37339;SDS011;23223;51.006;7.610;2023-06-22T13:39:51;9.13;;;8.23;;
37339;SDS011;23223;51.006;7.610;2023-06-22T13:42:17;7.07;;;6.47;;
37339;SDS011;23223;51.006;7.610;2023-06-22T13:44:42;9.18;;;6.25;;
37339;SDS011;23223;51.006;7.610;2023-06-22T13:47:08;9.18;;;7.13;;
37339;SDS011;23223;51.006;7.610;2023-06-22T13:49:33;11.15;;;6.88;;
37339;SDS011;23223;51.006;7.610;2023-06-22T13:51:59;12.07;;;8.68;;
37339;SDS011;23223;51.006;7.610;2023-06-22T13:54:25;9.70;;;7.13;;
37339;SDS011;23223;51.006;7.610;2023-06-22T13:56:50;10.63;;;8.85;;
37339;SDS011;23223;51.006;7.610;2023-06-22T13:59:16;11.80;;;9.43;;
37339;SDS011;23223;51.006;7.610;2023-06-22T14:01:41;9.82;;;8.27;;
37339;SDS011;23223;51.006;7.610;2023-06-22T14:04:08;10.48;;;8.55;;
37339;SDS011;23223;51.006;7.610;2023-06-22T14:06:34;9.05;;;7.97;;
37339;SDS011;23223;51.006;7.610;2023-06-22T14:09:00;10.82;;;8.48;;
37339;SDS011;23223;51.006;7.610;2023-06-22T14:11:25;9.85;;;8.23;;
37339;SDS011;23223;51.006;7.610;2023-06-22T14:13:51;8.82;;;7.88;;
37339;SDS011;23223;51.006;7.610;2023-06-22T14:16:17;8.57;;;7.78;;
37339;SDS011;23223;51.006;7.610;2023-06-22T14:18:42;6.85;;;5.30;;
37339;SDS011;23223;51.006;7.610;2023-06-22T14:21:08;8.13;;;7.30;;
37339;SDS011;23223;51.006;7.610;2023-06-22T14:23:33;10.60;;;7.25;;
37339;SDS011;23223;51.006;7.610;2023-06-22T14:25:59;9.30;;;6.93;;
37339;SDS011;23223;51.006;7.610;2023-06-22T14:28:25;9.60;;;7.40;;
37339;SDS011;23223;51.006;7.610;2023-06-22T14:30:50;9.25;;;7.22;;
37339;SDS011;23223;51.006;7.610;2023-06-22T14:33:16;11.45;;;8.02;;
37339;SDS011;23223;51.006;7.610;2023-06-22T14:35:41;10.70;;;7.18;;
37339;SDS011;23223;51.006;7.610;2023-06-22T14:38:07;11.45;;;6.80;;
37339;SDS011;23223;51.006;7.610;2023-06-22T14:40:33;9.80;;;7.07;;
37339;SDS011;23223;51.006;7.610;2023-06-22T14:42:58;9.85;;;8.80;;